createdAt,value
2022-08-17T00:00:43.835Z,18.60
2022-08-17T00:03:19.039Z,18.50
2022-08-17T00:05:50.473Z,18.40
2022-08-17T00:08:22.227Z,18.30
2022-08-17T00:10:54.805Z,18.20
2022-08-17T00:13:27.489Z,18.10
2022-08-17T00:16:02.261Z,18.00
2022-08-17T00:19:06.648Z,18.10
2022-08-17T00:21:25.302Z,18.10
2022-08-17T00:23:55.028Z,18.00
2022-08-17T00:26:34.891Z,17.90
2022-08-17T00:29:19.431Z,17.90
2022-08-17T00:31:51.294Z,17.80
2022-08-17T00:34:19.830Z,17.80
2022-08-17T00:36:48.028Z,17.80
2022-08-17T00:39:16.113Z,17.80
2022-08-17T00:41:44.578Z,17.80
2022-08-17T00:44:12.760Z,17.80
2022-08-17T00:46:44.360Z,17.80
2022-08-17T00:49:19.340Z,17.80
2022-08-17T00:51:53.646Z,17.80
2022-08-17T00:54:41.698Z,17.70
2022-08-17T00:57:17.167Z,17.70
2022-08-17T01:00:02.430Z,17.70
2022-08-17T01:02:42.724Z,17.80
2022-08-17T01:05:19.592Z,17.70
2022-08-17T01:07:51.479Z,17.80
2022-08-17T01:10:59.305Z,17.80
2022-08-17T01:13:15.582Z,17.80
2022-08-17T01:15:50.168Z,17.80
2022-08-17T01:18:18.570Z,17.70
2022-08-17T01:20:52.101Z,17.70
2022-08-17T01:23:25.296Z,17.70
2022-08-17T01:25:58.448Z,17.70
2022-08-17T01:28:52.636Z,17.60
2022-08-17T01:31:19.586Z,17.60
2022-08-17T01:33:47.710Z,17.60
2022-08-17T01:36:15.889Z,17.60
2022-08-17T01:38:45.411Z,17.50
2022-08-17T01:41:17.617Z,17.60
2022-08-17T01:43:52.245Z,17.60
2022-08-17T01:46:28.080Z,17.50
2022-08-17T01:48:58.168Z,17.50
2022-08-17T01:51:30.303Z,17.40
2022-08-17T01:54:05.165Z,17.40
2022-08-17T01:56:36.048Z,17.40
2022-08-17T01:59:05.083Z,17.50
2022-08-17T02:01:37.020Z,17.40
2022-08-17T02:04:08.359Z,17.50
2022-08-17T02:06:52.545Z,17.50
2022-08-17T02:09:25.450Z,17.50
2022-08-17T02:11:54.880Z,17.60
2022-08-17T02:14:25.740Z,17.60
2022-08-17T02:16:56.114Z,17.70
2022-08-17T02:19:24.383Z,17.80
2022-08-17T02:21:55.163Z,17.80
2022-08-17T02:25:00.026Z,17.70
2022-08-17T02:27:17.722Z,17.70
2022-08-17T02:29:46.048Z,17.70
2022-08-17T02:32:20.767Z,17.60
2022-08-17T02:34:56.129Z,17.70
2022-08-17T02:37:24.417Z,18.10
2022-08-17T02:39:54.235Z,18.20
2022-08-17T02:42:28.822Z,18.30
2022-08-17T02:44:56.923Z,18.40
2022-08-17T02:47:25.728Z,18.40
2022-08-17T02:49:55.808Z,18.40
2022-08-17T02:52:43.217Z,18.40
2022-08-17T02:55:18.933Z,18.40
2022-08-17T02:57:47.544Z,18.50
2022-08-17T03:00:22.835Z,18.50
2022-08-17T03:02:52.350Z,18.60
2022-08-17T03:05:25.074Z,18.60
2022-08-17T03:07:53.880Z,18.70
2022-08-17T03:10:25.618Z,18.70
2022-08-17T03:12:55.143Z,18.70
2022-08-17T03:15:27.208Z,18.80
2022-08-17T03:17:56.744Z,18.80
2022-08-17T03:20:26.090Z,18.80
2022-08-17T03:23:02.765Z,18.80
2022-08-17T03:25:38.634Z,18.90
2022-08-17T03:28:08.400Z,18.90
2022-08-17T03:30:37.667Z,19.00
2022-08-17T03:33:11.016Z,19.00
2022-08-17T03:35:41.706Z,19.00
2022-08-17T03:38:12.234Z,19.00
2022-08-17T03:40:59.021Z,18.90
2022-08-17T03:43:30.097Z,18.80
2022-08-17T03:46:27.940Z,18.60
2022-08-17T03:49:17.914Z,18.40
2022-08-17T03:52:03.453Z,18.30
2022-08-17T03:54:49.009Z,18.30
2022-08-17T03:57:19.217Z,18.20
2022-08-17T03:59:47.896Z,18.20
2022-08-17T04:02:22.606Z,18.10
2022-08-17T04:04:52.237Z,18.00
2022-08-17T04:07:22.363Z,18.00
2022-08-17T04:09:50.741Z,18.00
2022-08-17T04:12:23.527Z,18.00
2022-08-17T04:14:54.857Z,18.00
2022-08-17T04:17:26.254Z,18.00
2022-08-17T04:19:56.268Z,18.00
2022-08-17T04:22:30.226Z,18.10
2022-08-17T04:25:00.176Z,18.10
2022-08-17T04:27:29.612Z,18.10
2022-08-17T04:29:58.479Z,18.10
2022-08-17T04:33:02.264Z,18.20
2022-08-17T04:35:20.222Z,18.20
2022-08-17T04:37:48.441Z,18.20
2022-08-17T04:40:34.786Z,18.20
2022-08-17T04:43:07.934Z,18.20
2022-08-17T04:45:55.004Z,18.30
2022-08-17T04:48:29.627Z,18.20
2022-08-17T04:51:09.434Z,18.30
2022-08-17T04:53:38.195Z,18.30
2022-08-17T04:56:07.356Z,18.30
2022-08-17T04:58:41.331Z,18.20
2022-08-17T05:01:09.987Z,18.30
2022-08-17T05:03:38.351Z,18.20
2022-08-17T05:06:06.996Z,18.30
2022-08-17T05:08:35.448Z,18.20
2022-08-17T05:11:03.864Z,18.30
2022-08-17T05:13:32.348Z,18.40
2022-08-17T05:16:04.708Z,18.50
2022-08-17T05:18:33.753Z,18.50
2022-08-17T05:21:03.333Z,18.70
2022-08-17T05:23:42.069Z,18.90
2022-08-17T05:26:25.475Z,18.90
2022-08-17T05:29:00.514Z,19.00
2022-08-17T05:31:32.823Z,19.00
2022-08-17T05:34:00.971Z,19.00
2022-08-17T05:36:41.763Z,19.10
2022-08-17T05:39:17.088Z,19.00
2022-08-17T05:41:48.651Z,19.10
2022-08-17T05:44:18.035Z,19.10
2022-08-17T05:46:53.948Z,19.10
2022-08-17T05:49:29.182Z,19.10
2022-08-17T05:52:21.773Z,19.10
2022-08-17T05:55:10.980Z,19.10
2022-08-17T05:58:00.207Z,19.10
2022-08-17T06:00:42.160Z,19.10
2022-08-17T06:03:30.019Z,19.00
2022-08-17T06:06:25.235Z,19.00
2022-08-17T06:09:25.758Z,18.90
2022-08-17T06:12:04.436Z,18.90
2022-08-17T06:14:55.401Z,19.00
2022-08-17T06:17:28.531Z,18.90
2022-08-17T06:20:01.455Z,19.00
2022-08-17T06:22:37.024Z,19.00
2022-08-17T06:25:16.333Z,19.00
2022-08-17T06:27:53.632Z,19.00
2022-08-17T06:30:25.907Z,19.10
2022-08-17T06:32:59.508Z,19.10
2022-08-17T06:35:39.323Z,19.30
2022-08-17T06:38:36.917Z,19.30
2022-08-17T06:41:18.812Z,19.40
2022-08-17T06:44:43.551Z,19.40
2022-08-17T06:47:09.265Z,19.50
2022-08-17T06:49:54.612Z,19.50
2022-08-17T06:52:45.438Z,19.60
2022-08-17T06:55:22.393Z,19.70
2022-08-17T06:57:56.529Z,19.70
2022-08-17T07:00:33.604Z,19.70
2022-08-17T07:03:15.479Z,19.70
2022-08-17T07:05:47.482Z,19.80
2022-08-17T07:08:35.044Z,19.90
2022-08-17T07:11:13.013Z,20.10
2022-08-17T07:13:53.043Z,20.20
2022-08-17T07:16:27.864Z,20.40
2022-08-17T07:18:58.883Z,20.70
2022-08-17T07:21:43.109Z,21.30
2022-08-17T07:24:35.617Z,22.20
2022-08-17T07:27:09.386Z,23.40
2022-08-17T07:29:43.952Z,24.10
2022-08-17T07:32:18.353Z,24.80
2022-08-17T07:35:10.616Z,25.70
2022-08-17T07:37:41.971Z,27.40
2022-08-17T07:40:34.704Z,28.30
2022-08-17T07:43:21.764Z,28.20
2022-08-17T07:46:33.914Z,27.30
2022-08-17T07:49:23.866Z,26.40
2022-08-17T07:52:24.120Z,25.50
2022-08-17T07:54:49.023Z,25.30
2022-08-17T07:57:40.596Z,25.20
2022-08-17T08:00:31.783Z,24.80
2022-08-17T08:03:26.153Z,24.80
2022-08-17T08:06:00.251Z,24.70
2022-08-17T08:08:38.109Z,24.50
2022-08-17T08:11:12.930Z,24.30
2022-08-17T08:13:45.558Z,24.20
2022-08-17T08:16:24.463Z,24.30
2022-08-17T08:18:57.944Z,24.60
2022-08-17T08:21:47.172Z,24.90
2022-08-17T08:24:53.778Z,25.60
2022-08-17T08:27:41.256Z,27.90
2022-08-17T08:30:18.267Z,28.90
2022-08-17T08:33:12.708Z,28.60
2022-08-17T08:35:52.465Z,29.40
2022-08-17T08:38:34.472Z,29.70
2022-08-17T08:41:38.342Z,29.10
2022-08-17T08:45:00.585Z,28.60
2022-08-17T08:47:55.193Z,27.90
2022-08-17T08:50:37.746Z,27.80
2022-08-17T08:53:23.523Z,27.60
2022-08-17T08:55:59.804Z,27.50
2022-08-17T08:58:44.687Z,27.40
2022-08-17T09:01:27.360Z,27.60
2022-08-17T09:04:28.739Z,27.40
2022-08-17T09:07:16.611Z,26.90
2022-08-17T09:10:00.395Z,27.00
2022-08-17T09:12:42.695Z,27.10
2022-08-17T09:15:18.898Z,26.70
2022-08-17T09:18:33.514Z,26.60
2022-08-17T09:20:56.829Z,26.60
2022-08-17T09:23:35.214Z,26.30
2022-08-17T09:26:15.580Z,26.40
2022-08-17T09:28:51.802Z,26.70
2022-08-17T09:31:33.107Z,26.80
2022-08-17T09:34:08.994Z,27.10
2022-08-17T09:36:50.980Z,27.50
2022-08-17T09:39:34.249Z,27.60
2022-08-17T09:42:17.000Z,28.30
2022-08-17T09:44:57.438Z,29.50
2022-08-17T09:47:34.583Z,30.40
2022-08-17T09:50:13.398Z,30.80
2022-08-17T09:52:44.787Z,30.00
2022-08-17T09:55:13.048Z,29.10
2022-08-17T09:57:59.844Z,28.90
2022-08-17T10:00:36.657Z,29.20
2022-08-17T10:03:32.383Z,30.40
2022-08-17T10:06:09.147Z,31.70
2022-08-17T10:08:52.404Z,32.70
2022-08-17T10:11:48.402Z,31.90
2022-08-17T10:14:38.094Z,30.90
2022-08-17T10:17:21.577Z,31.20
2022-08-17T10:20:02.352Z,31.30
2022-08-17T10:23:02.165Z,30.90
2022-08-17T10:25:55.689Z,30.90
2022-08-17T10:28:31.239Z,30.50
2022-08-17T10:31:33.812Z,29.70
2022-08-17T10:34:12.548Z,30.20
2022-08-17T10:36:55.289Z,31.50
2022-08-17T10:39:52.070Z,32.40
2022-08-17T10:42:32.606Z,33.70
2022-08-17T10:45:17.000Z,34.60
2022-08-17T10:48:05.270Z,35.00
2022-08-17T10:51:01.403Z,33.80
2022-08-17T10:53:56.383Z,33.00
2022-08-17T10:56:50.517Z,33.60
2022-08-17T10:59:53.314Z,34.40
2022-08-17T11:02:31.457Z,34.10
2022-08-17T11:05:19.653Z,34.80
2022-08-17T11:08:25.511Z,35.10
2022-08-17T11:11:15.668Z,33.90
2022-08-17T11:13:57.927Z,34.00
2022-08-17T11:16:51.122Z,33.50
2022-08-17T11:19:44.508Z,33.50
2022-08-17T11:23:14.852Z,33.80
2022-08-17T11:25:54.762Z,34.00
2022-08-17T11:28:28.171Z,34.40
2022-08-17T11:31:00.836Z,34.90
2022-08-17T11:34:07.413Z,34.00
2022-08-17T11:37:16.628Z,32.40
2022-08-17T11:40:10.653Z,31.00
2022-08-17T11:43:08.810Z,30.00
2022-08-17T11:46:02.931Z,29.60
2022-08-17T11:49:01.296Z,30.30
2022-08-17T11:52:15.407Z,33.20
2022-08-17T11:54:48.518Z,35.10
2022-08-17T11:58:00.166Z,36.70
2022-08-17T12:00:56.389Z,36.80
2022-08-17T12:03:56.889Z,36.20
2022-08-17T12:06:52.651Z,37.10
2022-08-17T12:09:26.996Z,36.60
2022-08-17T12:12:13.389Z,35.30
2022-08-17T12:15:09.446Z,33.40
2022-08-17T12:17:40.892Z,33.50
2022-08-17T12:20:16.519Z,35.60
2022-08-17T12:22:56.379Z,36.40
2022-08-17T12:25:34.781Z,37.70
2022-08-17T12:28:06.442Z,39.40
2022-08-17T12:30:37.138Z,40.10
2022-08-17T12:33:25.430Z,39.30
2022-08-17T12:36:03.108Z,37.30
2022-08-17T12:38:34.769Z,36.00
2022-08-17T12:41:22.444Z,36.50
2022-08-17T12:44:02.315Z,36.50
2022-08-17T12:46:35.741Z,35.50
2022-08-17T12:49:16.218Z,35.20
2022-08-17T12:51:46.624Z,35.30
2022-08-17T12:54:34.666Z,36.30
2022-08-17T12:57:11.281Z,36.90
2022-08-17T12:59:46.103Z,35.40
2022-08-17T13:02:33.556Z,33.60
2022-08-17T13:05:03.067Z,32.00
2022-08-17T13:07:36.142Z,31.20
2022-08-17T13:10:05.517Z,31.00
2022-08-17T13:12:37.427Z,30.70
2022-08-17T13:15:07.710Z,30.40
2022-08-17T13:17:38.057Z,30.90
2022-08-17T13:20:15.749Z,32.50
2022-08-17T13:22:45.067Z,34.50
2022-08-17T13:25:18.072Z,36.70
2022-08-17T13:27:52.011Z,37.30
2022-08-17T13:30:28.165Z,37.00
2022-08-17T13:32:58.486Z,36.90
2022-08-17T13:35:49.890Z,37.20
2022-08-17T13:38:41.111Z,37.90
2022-08-17T13:41:09.228Z,37.80
2022-08-17T13:43:49.593Z,36.80
2022-08-17T13:46:24.285Z,36.90
2022-08-17T13:49:03.019Z,37.60
2022-08-17T13:51:42.531Z,37.60
2022-08-17T13:54:28.237Z,38.00
2022-08-17T13:57:01.532Z,38.50
2022-08-17T13:59:54.262Z,38.30
2022-08-17T14:02:28.388Z,38.70
2022-08-17T14:05:00.474Z,38.40
2022-08-17T14:07:34.274Z,37.60
2022-08-17T14:10:10.376Z,37.30
2022-08-17T14:12:41.792Z,36.90
2022-08-17T14:15:14.154Z,36.80
2022-08-17T14:17:42.719Z,37.20
2022-08-17T14:20:14.209Z,37.70
2022-08-17T14:22:48.268Z,38.40
2022-08-17T14:25:20.855Z,39.00
2022-08-17T14:27:53.396Z,38.10
2022-08-17T14:30:28.930Z,36.30
2022-08-17T14:32:58.992Z,35.10
2022-08-17T14:35:29.301Z,34.20
2022-08-17T14:37:58.946Z,33.80
2022-08-17T14:40:28.060Z,33.20
2022-08-17T14:42:57.969Z,32.10
2022-08-17T14:45:32.718Z,30.90
2022-08-17T14:48:05.815Z,30.30
2022-08-17T14:50:35.325Z,30.40
2022-08-17T14:53:05.504Z,31.20
2022-08-17T14:55:34.645Z,32.00
2022-08-17T14:58:03.916Z,32.70
2022-08-17T15:00:34.019Z,33.60
2022-08-17T15:03:03.977Z,33.80
2022-08-17T15:05:36.588Z,33.90
2022-08-17T15:08:06.250Z,33.80
2022-08-17T15:10:35.734Z,33.80
2022-08-17T15:13:03.899Z,33.70
2022-08-17T15:15:33.350Z,33.90
2022-08-17T15:18:02.421Z,33.40
2022-08-17T15:20:31.455Z,32.90
2022-08-17T15:22:59.974Z,32.50
2022-08-17T15:25:32.175Z,32.60
2022-08-17T15:28:02.130Z,33.00
2022-08-17T15:30:31.836Z,33.10
2022-08-17T15:33:02.812Z,33.20
2022-08-17T15:35:33.734Z,33.40
2022-08-17T15:38:11.672Z,33.30
2022-08-17T15:40:44.677Z,33.40
2022-08-17T15:43:16.960Z,32.90
2022-08-17T15:45:54.884Z,32.50
2022-08-17T15:48:41.889Z,32.30
2022-08-17T15:51:14.891Z,32.10
2022-08-17T15:53:46.484Z,32.00
2022-08-17T15:56:16.076Z,31.50
2022-08-17T15:58:47.575Z,30.90
2022-08-17T16:02:27.757Z,30.40
2022-08-17T16:04:27.248Z,30.10
2022-08-17T16:06:58.707Z,30.10
2022-08-17T16:09:26.922Z,29.70
2022-08-17T16:11:55.915Z,29.40
2022-08-17T16:14:24.619Z,29.10
2022-08-17T16:17:01.753Z,28.90
2022-08-17T16:19:32.489Z,28.90
2022-08-17T16:22:01.387Z,28.90
2022-08-17T16:24:29.906Z,28.90
2022-08-17T16:26:58.072Z,28.90
2022-08-17T16:29:26.463Z,29.00
2022-08-17T16:31:54.930Z,28.90
2022-08-17T16:34:23.192Z,28.60
2022-08-17T16:36:56.195Z,28.40
2022-08-17T16:39:27.608Z,28.20
2022-08-17T16:41:56.194Z,28.10
2022-08-17T16:44:25.710Z,28.00
2022-08-17T16:46:53.794Z,28.10
2022-08-17T16:49:35.195Z,28.30
2022-08-17T16:52:11.299Z,28.40
2022-08-17T16:54:43.656Z,28.60
2022-08-17T16:57:13.777Z,28.90
2022-08-17T16:59:47.482Z,29.00
2022-08-17T17:02:24.715Z,29.00
2022-08-17T17:05:02.608Z,28.90
2022-08-17T17:08:03.194Z,29.00
2022-08-17T17:10:39.796Z,29.10
2022-08-17T17:13:19.055Z,29.20
2022-08-17T17:15:58.487Z,29.40
2022-08-17T17:18:40.811Z,29.50
2022-08-17T17:21:15.756Z,29.40
2022-08-17T17:23:55.977Z,29.20
2022-08-17T17:26:55.545Z,29.00
2022-08-17T17:29:47.574Z,28.70
2022-08-17T17:32:26.549Z,28.80
2022-08-17T17:35:06.857Z,28.90
2022-08-17T17:37:36.913Z,28.80
2022-08-17T17:40:16.472Z,28.60
2022-08-17T17:42:45.666Z,28.60
2022-08-17T17:45:21.998Z,28.40
2022-08-17T17:47:50.887Z,28.30
2022-08-17T17:50:37.821Z,28.50
2022-08-17T17:53:09.894Z,28.60
2022-08-17T17:55:57.072Z,28.30
2022-08-17T17:58:42.702Z,28.00
2022-08-17T18:01:45.165Z,27.70
2022-08-17T18:04:28.674Z,27.50
2022-08-17T18:07:18.982Z,27.40
2022-08-17T18:10:13.702Z,27.20
2022-08-17T18:13:03.286Z,27.00
2022-08-17T18:15:38.491Z,26.90
2022-08-17T18:18:40.764Z,26.80
2022-08-17T18:21:16.290Z,26.80
2022-08-17T18:23:49.672Z,26.70
2022-08-17T18:26:44.958Z,26.40
2022-08-17T18:29:31.731Z,26.00
2022-08-17T18:32:43.659Z,25.60
2022-08-17T18:35:35.600Z,25.40
2022-08-17T18:38:28.406Z,25.00
2022-08-17T18:41:18.097Z,24.80
2022-08-17T18:44:00.411Z,24.70
2022-08-17T18:46:35.947Z,24.40
2022-08-17T18:49:24.888Z,24.20
2022-08-17T18:52:13.875Z,24.00
2022-08-17T18:55:02.918Z,23.90
2022-08-17T18:57:35.809Z,23.70
2022-08-17T19:00:14.337Z,23.50
2022-08-17T19:02:55.387Z,23.30
2022-08-17T19:05:36.109Z,23.10
2022-08-17T19:08:23.927Z,22.80
2022-08-17T19:10:58.293Z,22.60
2022-08-17T19:13:35.007Z,22.40
2022-08-17T19:16:15.340Z,22.40
2022-08-17T19:18:53.318Z,22.10
2022-08-17T19:21:28.210Z,22.00
2022-08-17T19:24:08.088Z,22.10
2022-08-17T19:26:54.370Z,21.70
2022-08-17T19:29:34.376Z,21.50
2022-08-17T19:32:03.444Z,21.40
2022-08-17T19:34:36.519Z,21.30
2022-08-17T19:37:13.839Z,21.30
2022-08-17T19:39:54.180Z,21.20
2022-08-17T19:42:49.780Z,21.10
2022-08-17T19:45:40.184Z,21.10
2022-08-17T19:48:24.061Z,21.10
2022-08-17T19:51:04.764Z,21.00
2022-08-17T19:54:04.295Z,21.00
2022-08-17T19:56:46.177Z,21.10
2022-08-17T19:59:24.458Z,21.00
2022-08-17T20:02:01.363Z,21.00
2022-08-17T20:04:42.396Z,20.90
2022-08-17T20:07:20.811Z,20.90
2022-08-17T20:09:55.786Z,20.90
2022-08-17T20:12:30.547Z,20.70
2022-08-17T20:15:05.131Z,20.60
2022-08-17T20:17:39.540Z,20.60
2022-08-17T20:20:23.261Z,20.60
2022-08-17T20:23:03.742Z,20.60
2022-08-17T20:25:43.875Z,20.60
2022-08-17T20:28:24.794Z,20.50
2022-08-17T20:30:53.952Z,20.40
2022-08-17T20:33:29.718Z,20.50
2022-08-17T20:36:19.043Z,20.40
2022-08-17T20:38:55.876Z,20.40
2022-08-17T20:41:26.816Z,20.40
2022-08-17T20:44:06.045Z,20.30
2022-08-17T20:46:58.020Z,20.20
2022-08-17T20:49:41.310Z,20.10
2022-08-17T20:52:14.180Z,20.00
2022-08-17T20:54:49.766Z,19.90
2022-08-17T20:57:48.658Z,19.80
2022-08-17T21:00:43.769Z,19.80
2022-08-17T21:03:51.177Z,19.80
2022-08-17T21:06:24.956Z,19.80
2022-08-17T21:09:29.722Z,19.80
2022-08-17T21:12:05.570Z,19.80
2022-08-17T21:15:07.095Z,19.70
2022-08-17T21:17:51.380Z,19.70
2022-08-17T21:20:42.020Z,19.80
2022-08-17T21:23:32.754Z,19.50
2022-08-17T21:26:22.937Z,19.50
2022-08-17T21:29:30.349Z,19.50
2022-08-17T21:32:24.293Z,19.50
2022-08-17T21:35:30.408Z,19.50
2022-08-17T21:38:04.960Z,19.60
2022-08-17T21:40:35.307Z,19.70
2022-08-17T21:43:24.342Z,19.60
2022-08-17T21:46:02.861Z,19.50
2022-08-17T21:48:41.352Z,19.60
2022-08-17T21:51:17.582Z,19.40
2022-08-17T21:53:51.387Z,19.30
2022-08-17T21:56:26.891Z,19.20
2022-08-17T21:59:02.227Z,19.20
2022-08-17T22:01:35.932Z,19.20
2022-08-17T22:04:19.778Z,19.10
2022-08-17T22:06:56.858Z,18.90
2022-08-17T22:09:29.916Z,18.70
2022-08-17T22:12:06.661Z,18.60
2022-08-17T22:14:51.454Z,18.50
2022-08-17T22:17:26.208Z,18.40
2022-08-17T22:20:00.649Z,18.50
2022-08-17T22:22:35.424Z,18.70
2022-08-17T22:25:07.743Z,18.80
2022-08-17T22:27:55.826Z,18.70
2022-08-17T22:30:37.733Z,18.50
2022-08-17T22:33:45.203Z,18.50
2022-08-17T22:36:29.114Z,18.50
2022-08-17T22:39:00.026Z,18.50
2022-08-17T22:41:34.502Z,18.50
2022-08-17T22:44:18.740Z,18.40
2022-08-17T22:46:59.930Z,18.30
2022-08-17T22:49:38.785Z,18.20
2022-08-17T22:52:35.546Z,18.00
2022-08-17T22:55:47.076Z,17.80
2022-08-17T22:58:38.731Z,17.70
2022-08-17T23:01:28.175Z,17.70
2022-08-17T23:03:59.605Z,17.80
2022-08-17T23:06:32.523Z,17.80
2022-08-17T23:09:03.972Z,17.80
2022-08-17T23:11:47.780Z,17.80
2022-08-17T23:14:20.167Z,17.70
2022-08-17T23:16:50.197Z,17.70
2022-08-17T23:19:21.848Z,17.60
2022-08-17T23:21:54.115Z,17.60
2022-08-17T23:24:26.902Z,17.60
2022-08-17T23:26:57.243Z,17.50
2022-08-17T23:29:26.024Z,17.50
2022-08-17T23:31:55.064Z,17.50
2022-08-17T23:34:24.271Z,17.50
2022-08-17T23:36:53.940Z,17.40
2022-08-17T23:39:24.631Z,17.30
2022-08-17T23:41:58.122Z,17.30
2022-08-17T23:44:27.147Z,17.20
2022-08-17T23:46:55.851Z,17.20
2022-08-17T23:49:25.398Z,17.20
2022-08-17T23:51:55.284Z,17.20
2022-08-17T23:54:29.051Z,17.30
2022-08-17T23:56:57.356Z,17.40
2022-08-17T23:59:27.452Z,17.50
